createdAt,value
2022-09-26T00:11:02.895Z,24.50
2022-09-26T00:13:32.724Z,25.20
2022-09-26T00:16:00.727Z,23.80
2022-09-26T00:22:29.049Z,24.70
2022-09-26T00:24:59.390Z,24.70
2022-09-26T00:27:27.105Z,25.70
2022-09-26T00:29:54.655Z,24.55
2022-09-26T00:32:22.246Z,25.23
2022-09-26T00:34:50.706Z,24.98
2022-09-26T00:37:18.393Z,24.52
2022-09-26T00:39:47.688Z,25.20
2022-09-26T00:42:16.362Z,24.88
2022-09-26T00:44:46.081Z,25.80
2022-09-26T00:47:23.640Z,27.67
2022-09-26T00:49:57.906Z,27.55
2022-09-26T00:52:32.389Z,27.38
2022-09-26T00:55:04.423Z,28.05
2022-09-26T00:57:45.477Z,27.27
2022-09-26T01:00:15.334Z,27.02
2022-09-26T01:02:45.535Z,28.03
2022-09-26T01:05:16.279Z,26.75
2022-09-26T01:07:44.779Z,27.45
2022-09-26T01:10:13.251Z,27.73
2022-09-26T01:12:41.658Z,27.17
2022-09-26T01:15:10.522Z,28.05
2022-09-26T01:17:40.264Z,26.48
2022-09-26T01:20:33.481Z,27.08
2022-09-26T01:23:32.508Z,26.67
2022-09-26T01:26:12.067Z,26.95
2022-09-26T01:29:02.678Z,27.63
2022-09-26T01:32:17.924Z,27.15
2022-09-26T01:34:57.525Z,27.70
2022-09-26T01:38:09.889Z,26.02
2022-09-26T01:41:06.668Z,26.77
2022-09-26T01:43:40.274Z,27.50
2022-09-26T01:50:53.422Z,28.17
2022-09-26T02:02:33.691Z,25.90
2022-09-26T02:05:07.969Z,27.67
2022-09-26T02:07:56.370Z,27.17
2022-09-26T02:19:44.619Z,27.27
2022-09-26T02:31:21.437Z,30.08
2022-09-26T02:33:51.133Z,30.00
2022-09-26T02:36:21.203Z,29.77
2022-09-26T02:43:22.306Z,30.08
2022-09-26T02:46:06.528Z,29.38
2022-09-26T02:49:04.682Z,29.52
2022-09-26T02:51:49.870Z,30.48
2022-09-26T02:54:29.397Z,32.33
2022-09-26T02:57:16.070Z,30.92
2022-09-26T02:59:59.271Z,30.48
2022-09-26T03:02:30.403Z,30.70
2022-09-26T03:05:20.640Z,29.70
2022-09-26T03:07:56.748Z,30.73
2022-09-26T03:10:28.558Z,29.42
2022-09-26T03:22:09.086Z,30.20
2022-09-26T03:33:47.525Z,32.63
2022-09-26T03:36:16.288Z,33.83
2022-09-26T03:38:44.374Z,32.17
2022-09-26T03:51:07.735Z,36.70
2022-09-26T03:53:38.001Z,36.47
2022-09-26T03:56:20.143Z,37.97
2022-09-26T04:07:55.842Z,36.28
2022-09-26T04:19:34.924Z,34.70
2022-09-26T04:31:13.236Z,36.80
2022-09-26T04:33:49.466Z,33.88
2022-09-26T04:36:18.295Z,34.67
2022-09-26T04:47:55.835Z,34.63
2022-09-26T04:50:26.760Z,34.70
2022-09-26T06:50:57.755Z,31.52
2022-09-26T06:52:25.999Z,31.90
2022-09-26T06:58:33.572Z,32.60
2022-09-26T07:01:11.349Z,31.77
2022-09-26T07:04:06.932Z,31.63
2022-09-26T07:06:40.186Z,31.90
2022-09-26T07:09:13.350Z,30.63
2022-09-26T07:12:14.484Z,32.75
2022-09-26T07:14:43.794Z,33.25
2022-09-26T07:17:20.654Z,30.52
2022-09-26T07:24:59.572Z,29.13
2022-09-26T07:27:54.288Z,28.27
2022-09-26T07:30:40.315Z,29.10
2022-09-26T07:33:16.462Z,28.55
2022-09-26T07:35:48.364Z,26.13
2022-09-26T07:38:16.333Z,28.60
2022-09-26T07:40:44.869Z,24.75
2022-09-26T07:43:21.273Z,24.08
2022-09-26T07:46:13.596Z,23.85
2022-09-26T07:49:04.137Z,24.35
2022-09-26T07:51:54.972Z,24.00
2022-09-26T07:54:25.925Z,25.00
2022-09-26T07:57:19.214Z,23.83
2022-09-26T08:00:13.080Z,22.70
2022-09-26T08:03:01.469Z,22.20
2022-09-26T08:05:31.885Z,21.75
2022-09-26T08:07:59.628Z,20.33
2022-09-26T08:10:53.139Z,20.70
2022-09-26T08:13:50.441Z,20.58
2022-09-26T08:16:23.121Z,20.35
2022-09-26T08:18:54.344Z,20.10
2022-09-26T08:21:23.209Z,19.83
2022-09-26T08:23:53.932Z,17.10
2022-09-26T08:26:44.412Z,16.80
2022-09-26T08:29:24.929Z,16.15
2022-09-26T08:31:54.925Z,15.55
2022-09-26T08:34:25.301Z,14.27
2022-09-26T08:37:12.150Z,12.23
2022-09-26T08:40:00.924Z,10.93
2022-09-26T08:43:04.371Z,13.05
2022-09-26T08:46:51.387Z,12.18
2022-09-26T08:50:11.916Z,12.50
2022-09-26T08:53:03.896Z,11.77
2022-09-26T08:55:40.778Z,11.60
2022-09-26T08:58:37.695Z,14.75
2022-09-26T09:01:13.147Z,14.02
2022-09-26T09:04:25.029Z,13.98
2022-09-26T09:07:04.552Z,12.02
2022-09-26T09:09:32.309Z,9.50
2022-09-26T09:13:02.732Z,9.93
2022-09-26T09:16:17.473Z,8.13
2022-09-26T09:18:59.880Z,8.50
2022-09-26T09:22:00.160Z,8.32
2022-09-26T09:24:46.495Z,7.22
2022-09-26T09:30:32.911Z,7.55
2022-09-26T09:33:26.097Z,7.25
2022-09-26T09:36:18.833Z,7.15
2022-09-26T09:39:08.490Z,7.25
2022-09-26T09:41:59.663Z,7.63
2022-09-26T09:44:46.227Z,8.98
2022-09-26T09:47:18.935Z,7.70
2022-09-26T09:49:49.052Z,8.90
2022-09-26T09:52:47.663Z,9.13
2022-09-26T09:55:31.749Z,8.30
2022-09-26T09:58:18.316Z,8.93
2022-09-26T10:00:54.843Z,9.27
2022-09-26T10:03:51.585Z,9.18
2022-09-26T10:06:44.651Z,9.25
2022-09-26T10:09:35.461Z,10.15
2022-09-26T10:12:36.838Z,9.80
2022-09-26T10:15:48.122Z,10.40
2022-09-26T10:19:02.354Z,10.02
2022-09-26T10:21:35.418Z,10.50
2022-09-26T10:24:06.833Z,9.40
2022-09-26T10:26:49.582Z,9.00
2022-09-26T10:29:35.258Z,9.88
2022-09-26T10:32:03.741Z,11.07
2022-09-26T10:34:34.654Z,10.80
2022-09-26T10:37:25.233Z,10.15
2022-09-26T10:40:19.233Z,9.10
2022-09-26T10:42:47.341Z,8.93
2022-09-26T10:45:17.584Z,9.75
2022-09-26T10:48:07.018Z,8.98
2022-09-26T10:51:07.798Z,8.57
2022-09-26T10:53:40.190Z,9.50
2022-09-26T10:56:13.880Z,9.02
2022-09-26T10:58:46.585Z,9.10
2022-09-26T11:01:26.556Z,8.77
2022-09-26T11:03:59.223Z,9.25
2022-09-26T11:06:43.977Z,8.52
2022-09-26T11:09:20.953Z,8.63
2022-09-26T11:12:25.583Z,7.80
2022-09-26T11:15:01.664Z,9.15
2022-09-26T11:17:50.393Z,8.73
2022-09-26T11:20:47.465Z,9.63
2022-09-26T11:23:35.189Z,8.93
2022-09-26T11:26:49.275Z,9.35
2022-09-26T11:29:58.869Z,8.82
2022-09-26T11:32:32.411Z,8.55
2022-09-26T11:35:45.174Z,8.20
2022-09-26T11:38:55.278Z,8.57
2022-09-26T11:41:38.883Z,8.52
2022-09-26T11:44:39.832Z,8.52
2022-09-26T11:47:54.391Z,9.38
2022-09-26T11:50:51.880Z,9.35
2022-09-26T11:53:46.036Z,10.57
2022-09-26T11:56:46.019Z,10.05
2022-09-26T11:59:32.731Z,8.93
2022-09-26T12:02:18.559Z,9.05
2022-09-26T12:05:00.956Z,8.20
2022-09-26T12:07:52.952Z,9.45
2022-09-26T12:10:54.656Z,9.95
2022-09-26T12:13:49.547Z,8.68
2022-09-26T12:16:55.269Z,7.95
2022-09-26T12:19:32.523Z,9.85
2022-09-26T12:22:30.111Z,10.13
2022-09-26T12:24:57.569Z,8.48
2022-09-26T12:27:30.775Z,8.48
2022-09-26T12:30:19.907Z,9.02
2022-09-26T12:33:07.299Z,9.27
2022-09-26T12:35:45.032Z,14.60
2022-09-26T12:38:25.994Z,8.65
2022-09-26T12:41:02.954Z,9.10
2022-09-26T12:43:33.436Z,9.63
2022-09-26T12:46:25.827Z,9.27
2022-09-26T12:48:53.853Z,10.00
2022-09-26T12:51:46.620Z,9.23
2022-09-26T12:54:16.985Z,10.18
2022-09-26T12:57:04.381Z,9.52
2022-09-26T12:59:58.229Z,10.25
2022-09-26T13:02:46.743Z,9.93
2022-09-26T13:05:51.227Z,10.77
2022-09-26T13:08:37.050Z,9.98
2022-09-26T13:11:22.423Z,9.98
2022-09-26T13:14:16.720Z,9.45
2022-09-26T13:16:53.940Z,10.10
2022-09-26T13:19:35.622Z,10.60
2022-09-26T13:22:10.395Z,10.23
2022-09-26T13:25:02.849Z,10.38
2022-09-26T13:27:47.274Z,11.02
2022-09-26T13:30:18.859Z,9.73
2022-09-26T13:33:03.549Z,10.18
2022-09-26T13:35:35.840Z,10.40
2022-09-26T13:38:41.314Z,9.85
2022-09-26T13:41:55.371Z,10.48
2022-09-26T13:44:44.951Z,10.00
2022-09-26T13:47:29.819Z,9.27
2022-09-26T13:50:29.911Z,8.98
2022-09-26T13:53:10.145Z,10.00
2022-09-26T13:55:37.733Z,7.28
2022-09-26T13:58:19.459Z,7.20
2022-09-26T14:00:53.506Z,8.00
2022-09-26T14:03:21.744Z,8.48
2022-09-26T14:05:51.479Z,7.60
2022-09-26T14:08:43.406Z,8.50
2022-09-26T14:11:34.345Z,8.07
2022-09-26T14:14:17.002Z,10.77
2022-09-26T14:16:45.939Z,7.90
2022-09-26T14:19:39.329Z,7.65
2022-09-26T14:22:19.334Z,5.70
2022-09-26T14:24:50.337Z,4.28
2022-09-26T14:27:17.636Z,3.65
2022-09-26T14:29:53.027Z,4.93
2022-09-26T14:32:37.110Z,2.97
2022-09-26T14:35:17.776Z,1.92
2022-09-26T14:37:49.459Z,1.60
2022-09-26T14:40:27.057Z,3.47
2022-09-26T14:43:25.944Z,2.83
2022-09-26T14:46:03.027Z,2.53
2022-09-26T14:48:42.387Z,2.50
2022-09-26T14:51:17.125Z,3.40
2022-09-26T14:53:47.365Z,4.00
2022-09-26T14:56:17.121Z,3.90
2022-09-26T14:58:45.470Z,3.78
2022-09-26T15:01:18.098Z,3.67
2022-09-26T15:04:03.059Z,4.70
2022-09-26T15:06:38.879Z,3.47
2022-09-26T15:09:37.977Z,3.20
2022-09-26T15:12:22.817Z,3.55
2022-09-26T15:14:52.079Z,4.43
2022-09-26T15:17:33.609Z,4.63
2022-09-26T15:20:05.818Z,4.20
2022-09-26T15:22:34.967Z,4.45
2022-09-26T15:25:23.998Z,3.63
2022-09-26T15:27:55.725Z,3.50
2022-09-26T15:30:35.413Z,4.05
2022-09-26T15:33:04.334Z,4.07
2022-09-26T15:35:32.724Z,3.75
2022-09-26T15:38:09.847Z,4.28
2022-09-26T15:40:37.995Z,4.93
2022-09-26T15:43:16.132Z,3.85
2022-09-26T15:45:46.674Z,3.70
2022-09-26T15:48:20.322Z,4.22
2022-09-26T15:50:54.961Z,3.45
2022-09-26T15:53:41.567Z,3.95
2022-09-26T15:56:43.184Z,3.55
2022-09-26T15:59:13.721Z,3.63
2022-09-26T16:01:44.322Z,3.05
2022-09-26T16:04:23.925Z,3.38
2022-09-26T16:07:19.191Z,4.28
2022-09-26T16:09:53.787Z,2.92
2022-09-26T16:12:23.836Z,4.35
2022-09-26T16:15:09.920Z,5.95
2022-09-26T16:17:49.224Z,4.25
2022-09-26T16:20:17.230Z,4.60
2022-09-26T16:22:46.124Z,4.45
2022-09-26T16:25:19.637Z,4.40
2022-09-26T16:28:11.277Z,3.95
2022-09-26T16:30:45.317Z,4.25
2022-09-26T16:33:26.506Z,3.63
2022-09-26T16:35:54.281Z,3.30
2022-09-26T16:38:28.087Z,3.33
2022-09-26T16:40:59.123Z,4.03
2022-09-26T16:43:30.008Z,4.80
2022-09-26T16:46:17.981Z,5.07
2022-09-26T16:48:51.268Z,2.60
2022-09-26T16:51:36.362Z,4.55
2022-09-26T16:54:20.353Z,4.90
2022-09-26T16:56:52.918Z,4.63
2022-09-26T16:59:29.002Z,3.78
2022-09-26T17:02:00.207Z,4.22
2022-09-26T17:04:32.458Z,4.85
2022-09-26T17:07:09.716Z,6.43
2022-09-26T17:09:37.589Z,4.90
2022-09-26T17:12:27.253Z,6.38
2022-09-26T17:14:56.831Z,5.90
2022-09-26T17:17:28.163Z,7.55
2022-09-26T17:19:59.454Z,6.50
2022-09-26T17:22:28.365Z,6.13
2022-09-26T17:24:56.717Z,4.80
2022-09-26T17:27:33.545Z,5.55
2022-09-26T17:30:03.426Z,6.25
2022-09-26T17:32:36.373Z,5.65
2022-09-26T17:35:12.654Z,7.60
2022-09-26T17:37:40.101Z,5.75
2022-09-26T17:40:17.137Z,9.10
2022-09-26T17:42:47.965Z,7.55
2022-09-26T17:45:15.628Z,7.60
2022-09-26T17:47:43.293Z,6.93
2022-09-26T17:50:25.817Z,6.88
2022-09-26T17:52:54.440Z,9.27
2022-09-26T17:55:23.567Z,6.85
2022-09-26T17:57:52.090Z,10.15
2022-09-26T18:00:20.973Z,10.77
2022-09-26T18:02:57.182Z,9.73
2022-09-26T18:05:30.762Z,10.00
2022-09-26T18:08:01.937Z,9.60
2022-09-26T18:10:34.071Z,8.85
2022-09-26T18:13:09.390Z,8.65
2022-09-26T18:15:41.216Z,8.68
2022-09-26T18:18:16.498Z,8.85
2022-09-26T18:20:53.476Z,10.80
2022-09-26T18:23:30.021Z,8.70
2022-09-26T18:25:59.915Z,9.00
2022-09-26T18:28:30.836Z,10.57
2022-09-26T18:31:00.840Z,8.18
2022-09-26T18:33:29.303Z,9.32
2022-09-26T18:35:58.067Z,11.02
2022-09-26T18:38:26.723Z,8.63
2022-09-26T18:40:58.353Z,12.65
2022-09-26T18:43:37.762Z,9.45
2022-09-26T18:46:16.931Z,10.02
2022-09-26T18:48:46.536Z,10.93
2022-09-26T18:51:14.455Z,9.70
2022-09-26T18:53:42.462Z,10.60
2022-09-26T18:56:32.808Z,10.40
2022-09-26T18:59:29.030Z,10.10
2022-09-26T19:08:49.787Z,12.75
2022-09-26T19:11:21.379Z,13.20
2022-09-26T19:13:53.056Z,12.18
2022-09-26T19:16:21.857Z,9.75
2022-09-26T19:18:49.792Z,7.75
2022-09-26T19:21:36.541Z,7.75
2022-09-26T19:27:09.856Z,6.43
2022-09-26T19:30:05.340Z,6.85
2022-09-26T19:32:47.512Z,9.57
2022-09-26T19:35:34.665Z,9.10
2022-09-26T19:38:05.962Z,5.32
2022-09-26T19:40:33.841Z,5.63
2022-09-26T19:43:01.578Z,7.68
2022-09-26T19:45:32.244Z,6.28
2022-09-26T19:48:00.277Z,6.75
2022-09-26T19:50:29.799Z,7.18
2022-09-26T19:53:03.335Z,6.97
2022-09-26T19:55:31.674Z,5.75
2022-09-26T19:58:07.118Z,6.25
2022-09-26T20:00:41.425Z,6.22
2022-09-26T20:03:31.238Z,5.95
2022-09-26T20:06:01.447Z,5.95
2022-09-26T20:08:30.036Z,8.52
2022-09-26T20:11:02.402Z,7.20
2022-09-26T20:13:57.764Z,7.43
2022-09-26T20:16:44.331Z,6.45
2022-09-26T20:19:20.329Z,6.78
2022-09-26T20:21:51.370Z,8.77
2022-09-26T20:24:19.806Z,7.97
2022-09-26T20:26:48.513Z,7.57
2022-09-26T20:29:16.683Z,9.25
2022-09-26T20:31:44.456Z,7.38
2022-09-26T20:34:12.257Z,9.05
2022-09-26T20:36:42.463Z,8.63
2022-09-26T20:39:30.934Z,9.27
2022-09-26T20:42:02.070Z,10.63
2022-09-26T20:44:33.817Z,9.88
2022-09-26T20:47:04.786Z,9.25
2022-09-26T20:49:44.936Z,9.75
2022-09-26T20:52:20.935Z,12.85
2022-09-26T20:54:48.791Z,10.10
2022-09-26T20:57:17.353Z,10.93
2022-09-26T20:59:45.410Z,11.63
2022-09-26T21:02:35.119Z,12.48
2022-09-26T21:05:03.558Z,12.18
2022-09-26T21:07:32.291Z,11.07
2022-09-26T21:10:00.071Z,10.52
2022-09-26T21:12:27.746Z,11.40
2022-09-26T21:14:55.440Z,11.63
2022-09-26T21:17:28.936Z,10.70
2022-09-26T21:19:56.891Z,10.25
2022-09-26T21:23:01.971Z,10.88
2022-09-26T21:25:32.395Z,11.50
2022-09-26T21:28:13.768Z,11.48
2022-09-26T21:30:42.985Z,13.75
2022-09-26T21:33:13.755Z,10.70
2022-09-26T21:35:42.351Z,5.60
2022-09-26T21:38:12.683Z,4.30
2022-09-26T21:40:43.205Z,2.80
2022-09-26T21:43:17.043Z,3.20
2022-09-26T21:45:45.898Z,1.70
2022-09-26T21:48:18.951Z,1.65
2022-09-26T21:51:05.182Z,1.27
2022-09-26T21:53:38.189Z,1.27
2022-09-26T21:56:13.178Z,1.30
2022-09-26T21:58:41.600Z,2.28
2022-09-26T22:01:09.582Z,1.98
2022-09-26T22:03:37.520Z,1.58
2022-09-26T22:06:09.345Z,1.63
2022-09-26T22:08:38.041Z,1.45
2022-09-26T22:11:09.159Z,1.08
2022-09-26T22:13:39.898Z,1.05
2022-09-26T22:16:12.843Z,0.85
2022-09-26T22:18:41.241Z,1.00
2022-09-26T22:21:10.993Z,1.50
2022-09-26T22:23:38.681Z,1.00
2022-09-26T22:26:06.869Z,1.48
2022-09-26T22:28:34.591Z,1.17
2022-09-26T22:31:04.376Z,0.88
2022-09-26T22:33:33.113Z,0.88
2022-09-26T22:36:01.173Z,1.33
2022-09-26T22:38:28.987Z,1.55
2022-09-26T22:40:58.758Z,0.75
2022-09-26T22:43:27.850Z,1.00
2022-09-26T22:46:10.379Z,0.88
2022-09-26T22:48:41.541Z,1.70
2022-09-26T22:51:09.959Z,0.85
2022-09-26T22:53:39.405Z,1.48
2022-09-26T22:56:09.519Z,1.10
2022-09-26T22:58:48.992Z,0.82
2022-09-26T23:01:22.577Z,3.85
2022-09-26T23:03:52.929Z,1.02
2022-09-26T23:06:22.109Z,1.83
2022-09-26T23:08:50.698Z,1.08
2022-09-26T23:11:30.532Z,1.83
2022-09-26T23:14:06.416Z,1.52
2022-09-26T23:16:37.800Z,1.58
2022-09-26T23:19:09.079Z,1.40
2022-09-26T23:21:37.003Z,1.83
2022-09-26T23:24:07.539Z,1.75
2022-09-26T23:26:39.379Z,1.70
2022-09-26T23:29:12.313Z,2.55
2022-09-26T23:31:46.894Z,1.60
2022-09-26T23:34:19.805Z,1.57
2022-09-26T23:36:50.268Z,1.92
2022-09-26T23:39:21.870Z,2.00
2022-09-26T23:41:57.298Z,2.30
2022-09-26T23:44:28.375Z,1.70
2022-09-26T23:47:07.353Z,1.52
2022-09-26T23:50:09.036Z,1.48
2022-09-26T23:52:27.784Z,1.90
2022-09-26T23:54:57.165Z,1.75
2022-09-26T23:57:33.893Z,1.60
